sensor_id;sensor_type;location;lat;lon;timestamp;temperature;humidity
13794;DHT22;31160;49.500;7.772;2024-02-21T00:02:00;8.10;99.90
13794;DHT22;31160;49.500;7.772;2024-02-21T00:04:28;8.00;99.90
13794;DHT22;31160;49.500;7.772;2024-02-21T00:06:56;7.90;99.90
13794;DHT22;31160;49.500;7.772;2024-02-21T00:09:24;8.00;99.90
13794;DHT22;31160;49.500;7.772;2024-02-21T00:11:52;8.00;99.90
13794;DHT22;31160;49.500;7.772;2024-02-21T00:14:20;8.00;99.90
13794;DHT22;31160;49.500;7.772;2024-02-21T00:16:47;8.10;99.90
13794;DHT22;31160;49.500;7.772;2024-02-21T00:19:15;8.20;99.90
13794;DHT22;31160;49.500;7.772;2024-02-21T00:21:42;8.00;99.90
13794;DHT22;31160;49.500;7.772;2024-02-21T00:24:09;8.00;99.90
13794;DHT22;31160;49.500;7.772;2024-02-21T00:26:36;8.00;99.90
13794;DHT22;31160;49.500;7.772;2024-02-21T00:29:02;8.10;99.90
13794;DHT22;31160;49.500;7.772;2024-02-21T00:31:34;8.20;99.90
13794;DHT22;31160;49.500;7.772;2024-02-21T00:34:01;8.20;99.90
13794;DHT22;31160;49.500;7.772;2024-02-21T00:36:28;8.20;99.90
13794;DHT22;31160;49.500;7.772;2024-02-21T00:38:54;8.10;99.90
13794;DHT22;31160;49.500;7.772;2024-02-21T00:41:21;8.10;99.90
13794;DHT22;31160;49.500;7.772;2024-02-21T00:43:48;8.10;99.90
13794;DHT22;31160;49.500;7.772;2024-02-21T00:46:16;8.00;99.90
13794;DHT22;31160;49.500;7.772;2024-02-21T00:48:43;7.80;99.90
13794;DHT22;31160;49.500;7.772;2024-02-21T00:51:10;7.90;99.90
13794;DHT22;31160;49.500;7.772;2024-02-21T00:53:37;8.00;99.90
13794;DHT22;31160;49.500;7.772;2024-02-21T00:56:05;7.90;99.90
13794;DHT22;31160;49.500;7.772;2024-02-21T00:58:32;8.00;99.90
13794;DHT22;31160;49.500;7.772;2024-02-21T01:01:00;8.00;99.90
13794;DHT22;31160;49.500;7.772;2024-02-21T01:03:27;8.10;99.90
13794;DHT22;31160;49.500;7.772;2024-02-21T01:05:54;8.10;99.90
13794;DHT22;31160;49.500;7.772;2024-02-21T01:08:20;8.00;99.90
13794;DHT22;31160;49.500;7.772;2024-02-21T01:10:47;8.00;99.90
13794;DHT22;31160;49.500;7.772;2024-02-21T01:13:14;7.90;99.90
13794;DHT22;31160;49.500;7.772;2024-02-21T01:15:41;7.90;99.90
13794;DHT22;31160;49.500;7.772;2024-02-21T01:18:07;7.90;99.90
13794;DHT22;31160;49.500;7.772;2024-02-21T01:20:34;7.90;99.90
13794;DHT22;31160;49.500;7.772;2024-02-21T01:23:01;7.90;99.90
13794;DHT22;31160;49.500;7.772;2024-02-21T01:25:28;8.00;99.90
13794;DHT22;31160;49.500;7.772;2024-02-21T01:27:54;8.00;99.90
13794;DHT22;31160;49.500;7.772;2024-02-21T01:30:21;8.10;99.90
13794;DHT22;31160;49.500;7.772;2024-02-21T01:32:48;8.10;99.90
13794;DHT22;31160;49.500;7.772;2024-02-21T01:35:15;8.10;99.90
13794;DHT22;31160;49.500;7.772;2024-02-21T01:37:42;8.10;99.90
13794;DHT22;31160;49.500;7.772;2024-02-21T01:40:09;8.10;99.90
13794;DHT22;31160;49.500;7.772;2024-02-21T01:42:39;8.20;99.90
13794;DHT22;31160;49.500;7.772;2024-02-21T01:45:07;8.20;99.90
13794;DHT22;31160;49.500;7.772;2024-02-21T01:47:35;8.20;99.90
13794;DHT22;31160;49.500;7.772;2024-02-21T01:50:02;8.20;99.90
13794;DHT22;31160;49.500;7.772;2024-02-21T01:52:30;8.20;99.90
13794;DHT22;31160;49.500;7.772;2024-02-21T01:54:57;8.20;99.90
13794;DHT22;31160;49.500;7.772;2024-02-21T01:57:24;8.10;99.90
13794;DHT22;31160;49.500;7.772;2024-02-21T01:59:52;8.10;99.90
13794;DHT22;31160;49.500;7.772;2024-02-21T02:02:19;8.10;99.90
13794;DHT22;31160;49.500;7.772;2024-02-21T02:04:46;8.20;99.90
13794;DHT22;31160;49.500;7.772;2024-02-21T02:07:12;8.20;99.90
13794;DHT22;31160;49.500;7.772;2024-02-21T02:09:40;8.20;99.90
13794;DHT22;31160;49.500;7.772;2024-02-21T02:12:07;8.10;99.90
13794;DHT22;31160;49.500;7.772;2024-02-21T02:14:33;8.10;99.90
13794;DHT22;31160;49.500;7.772;2024-02-21T02:17:00;8.10;99.90
13794;DHT22;31160;49.500;7.772;2024-02-21T02:19:27;8.10;99.90
13794;DHT22;31160;49.500;7.772;2024-02-21T02:22:09;8.00;99.90
13794;DHT22;31160;49.500;7.772;2024-02-21T02:24:36;7.90;99.90
13794;DHT22;31160;49.500;7.772;2024-02-21T02:27:02;7.90;99.90
13794;DHT22;31160;49.500;7.772;2024-02-21T02:29:32;7.80;99.90
13794;DHT22;31160;49.500;7.772;2024-02-21T02:31:58;7.80;99.90
13794;DHT22;31160;49.500;7.772;2024-02-21T02:34:25;7.70;99.90
13794;DHT22;31160;49.500;7.772;2024-02-21T02:36:52;7.70;99.90
13794;DHT22;31160;49.500;7.772;2024-02-21T02:39:21;7.60;99.90
13794;DHT22;31160;49.500;7.772;2024-02-21T02:41:47;7.60;99.90
13794;DHT22;31160;49.500;7.772;2024-02-21T02:44:14;7.60;99.90
13794;DHT22;31160;49.500;7.772;2024-02-21T02:46:41;7.50;99.90
13794;DHT22;31160;49.500;7.772;2024-02-21T02:49:08;7.50;99.90
13794;DHT22;31160;49.500;7.772;2024-02-21T02:51:35;7.40;99.90
13794;DHT22;31160;49.500;7.772;2024-02-21T02:54:02;7.50;99.90
13794;DHT22;31160;49.500;7.772;2024-02-21T02:56:29;7.50;99.90
13794;DHT22;31160;49.500;7.772;2024-02-21T02:58:56;7.50;99.90
13794;DHT22;31160;49.500;7.772;2024-02-21T03:01:23;7.50;99.90
13794;DHT22;31160;49.500;7.772;2024-02-21T03:03:50;7.60;99.90
13794;DHT22;31160;49.500;7.772;2024-02-21T03:06:17;7.60;99.90
13794;DHT22;31160;49.500;7.772;2024-02-21T03:08:43;7.70;99.90
13794;DHT22;31160;49.500;7.772;2024-02-21T03:11:10;7.70;99.90
13794;DHT22;31160;49.500;7.772;2024-02-21T03:13:37;7.70;99.90
13794;DHT22;31160;49.500;7.772;2024-02-21T03:16:04;7.70;99.90
13794;DHT22;31160;49.500;7.772;2024-02-21T03:18:32;7.80;99.90
13794;DHT22;31160;49.500;7.772;2024-02-21T03:20:59;7.70;99.90
13794;DHT22;31160;49.500;7.772;2024-02-21T03:23:26;7.80;99.90
13794;DHT22;31160;49.500;7.772;2024-02-21T03:25:52;7.80;99.90
13794;DHT22;31160;49.500;7.772;2024-02-21T03:28:19;7.80;99.90
13794;DHT22;31160;49.500;7.772;2024-02-21T03:30:46;7.90;99.90
13794;DHT22;31160;49.500;7.772;2024-02-21T03:33:13;7.90;99.90
13794;DHT22;31160;49.500;7.772;2024-02-21T03:35:40;7.90;99.90
13794;DHT22;31160;49.500;7.772;2024-02-21T03:38:06;7.90;99.90
13794;DHT22;31160;49.500;7.772;2024-02-21T03:40:33;7.90;99.90
13794;DHT22;31160;49.500;7.772;2024-02-21T03:43:00;7.90;99.90
13794;DHT22;31160;49.500;7.772;2024-02-21T03:45:27;7.80;99.90
13794;DHT22;31160;49.500;7.772;2024-02-21T03:47:53;7.80;99.90
13794;DHT22;31160;49.500;7.772;2024-02-21T03:50:20;7.70;99.90
13794;DHT22;31160;49.500;7.772;2024-02-21T03:52:47;7.70;99.90
13794;DHT22;31160;49.500;7.772;2024-02-21T03:55:14;7.90;99.90
13794;DHT22;31160;49.500;7.772;2024-02-21T03:57:41;7.90;99.90
13794;DHT22;31160;49.500;7.772;2024-02-21T04:00:08;7.80;99.90
13794;DHT22;31160;49.500;7.772;2024-02-21T04:02:37;7.90;99.90
13794;DHT22;31160;49.500;7.772;2024-02-21T04:05:04;7.90;99.90
13794;DHT22;31160;49.500;7.772;2024-02-21T04:07:32;7.90;99.90
13794;DHT22;31160;49.500;7.772;2024-02-21T04:09:58;7.70;99.90
13794;DHT22;31160;49.500;7.772;2024-02-21T04:12:25;7.70;99.90
13794;DHT22;31160;49.500;7.772;2024-02-21T04:14:52;7.70;99.90
13794;DHT22;31160;49.500;7.772;2024-02-21T04:17:19;7.80;99.90
13794;DHT22;31160;49.500;7.772;2024-02-21T04:19:45;7.80;99.90
13794;DHT22;31160;49.500;7.772;2024-02-21T04:22:12;7.90;99.90
13794;DHT22;31160;49.500;7.772;2024-02-21T04:24:39;7.90;99.90
13794;DHT22;31160;49.500;7.772;2024-02-21T04:27:06;7.80;99.90
13794;DHT22;31160;49.500;7.772;2024-02-21T04:29:32;7.90;99.90
13794;DHT22;31160;49.500;7.772;2024-02-21T04:32:01;7.70;99.90
13794;DHT22;31160;49.500;7.772;2024-02-21T04:34:29;7.80;99.90
13794;DHT22;31160;49.500;7.772;2024-02-21T04:36:56;7.90;99.90
13794;DHT22;31160;49.500;7.772;2024-02-21T04:39:22;7.90;99.90
13794;DHT22;31160;49.500;7.772;2024-02-21T04:41:49;7.90;99.90
13794;DHT22;31160;49.500;7.772;2024-02-21T04:44:16;7.70;99.90
13794;DHT22;31160;49.500;7.772;2024-02-21T04:46:43;7.70;99.90
13794;DHT22;31160;49.500;7.772;2024-02-21T04:49:10;7.70;99.90
13794;DHT22;31160;49.500;7.772;2024-02-21T04:51:36;7.80;99.90
13794;DHT22;31160;49.500;7.772;2024-02-21T04:54:03;7.80;99.90
13794;DHT22;31160;49.500;7.772;2024-02-21T04:56:30;7.70;99.90
13794;DHT22;31160;49.500;7.772;2024-02-21T04:58:57;7.80;99.90
13794;DHT22;31160;49.500;7.772;2024-02-21T05:01:24;7.80;99.90
13794;DHT22;31160;49.500;7.772;2024-02-21T05:03:51;7.70;99.90
13794;DHT22;31160;49.500;7.772;2024-02-21T05:06:17;7.80;99.90
13794;DHT22;31160;49.500;7.772;2024-02-21T05:08:45;7.90;99.90
13794;DHT22;31160;49.500;7.772;2024-02-21T05:11:12;7.90;99.90
13794;DHT22;31160;49.500;7.772;2024-02-21T05:13:39;7.90;99.90
13794;DHT22;31160;49.500;7.772;2024-02-21T05:16:06;7.70;99.90
13794;DHT22;31160;49.500;7.772;2024-02-21T05:18:33;7.60;99.90
13794;DHT22;31160;49.500;7.772;2024-02-21T05:21:01;7.60;99.90
13794;DHT22;31160;49.500;7.772;2024-02-21T05:23:28;7.50;99.90
13794;DHT22;31160;49.500;7.772;2024-02-21T05:25:55;7.50;99.90
13794;DHT22;31160;49.500;7.772;2024-02-21T05:28:21;7.50;99.90
13794;DHT22;31160;49.500;7.772;2024-02-21T05:30:48;7.40;99.90
13794;DHT22;31160;49.500;7.772;2024-02-21T05:33:15;7.50;99.90
13794;DHT22;31160;49.500;7.772;2024-02-21T05:35:48;7.30;99.90
13794;DHT22;31160;49.500;7.772;2024-02-21T05:38:15;7.30;99.90
13794;DHT22;31160;49.500;7.772;2024-02-21T05:40:42;7.30;99.90
13794;DHT22;31160;49.500;7.772;2024-02-21T05:43:09;7.30;99.90
13794;DHT22;31160;49.500;7.772;2024-02-21T05:45:36;7.40;99.90
13794;DHT22;31160;49.500;7.772;2024-02-21T05:48:04;7.50;99.90
13794;DHT22;31160;49.500;7.772;2024-02-21T05:50:31;7.60;99.90
13794;DHT22;31160;49.500;7.772;2024-02-21T05:52:58;7.50;99.90
13794;DHT22;31160;49.500;7.772;2024-02-21T05:55:25;7.40;99.90
13794;DHT22;31160;49.500;7.772;2024-02-21T05:57:55;7.50;99.90
13794;DHT22;31160;49.500;7.772;2024-02-21T06:00:22;7.40;99.90
13794;DHT22;31160;49.500;7.772;2024-02-21T06:02:49;7.40;99.90
13794;DHT22;31160;49.500;7.772;2024-02-21T06:05:16;7.40;99.90
13794;DHT22;31160;49.500;7.772;2024-02-21T06:07:43;7.40;99.90
13794;DHT22;31160;49.500;7.772;2024-02-21T06:10:10;7.30;99.90
13794;DHT22;31160;49.500;7.772;2024-02-21T06:12:37;7.40;99.90
13794;DHT22;31160;49.500;7.772;2024-02-21T06:15:04;7.50;99.90
13794;DHT22;31160;49.500;7.772;2024-02-21T06:17:31;7.70;99.90
13794;DHT22;31160;49.500;7.772;2024-02-21T06:19:57;7.60;99.90
13794;DHT22;31160;49.500;7.772;2024-02-21T06:22:24;7.60;99.90
13794;DHT22;31160;49.500;7.772;2024-02-21T06:24:51;7.70;99.90
13794;DHT22;31160;49.500;7.772;2024-02-21T06:27:20;7.70;99.90
13794;DHT22;31160;49.500;7.772;2024-02-21T06:29:46;7.70;99.90
13794;DHT22;31160;49.500;7.772;2024-02-21T06:32:13;7.70;99.90
13794;DHT22;31160;49.500;7.772;2024-02-21T06:34:40;7.80;99.90
13794;DHT22;31160;49.500;7.772;2024-02-21T06:37:07;7.80;99.90
13794;DHT22;31160;49.500;7.772;2024-02-21T06:39:34;7.80;99.90
13794;DHT22;31160;49.500;7.772;2024-02-21T06:42:03;7.90;99.90
13794;DHT22;31160;49.500;7.772;2024-02-21T06:44:30;7.90;99.90
13794;DHT22;31160;49.500;7.772;2024-02-21T06:46:58;7.80;99.90
13794;DHT22;31160;49.500;7.772;2024-02-21T06:49:26;7.70;99.90
13794;DHT22;31160;49.500;7.772;2024-02-21T06:51:53;7.80;99.90
13794;DHT22;31160;49.500;7.772;2024-02-21T06:54:19;7.90;99.90
13794;DHT22;31160;49.500;7.772;2024-02-21T06:56:46;7.90;99.90
13794;DHT22;31160;49.500;7.772;2024-02-21T06:59:13;7.60;99.90
13794;DHT22;31160;49.500;7.772;2024-02-21T07:01:48;7.70;99.90
13794;DHT22;31160;49.500;7.772;2024-02-21T07:04:15;7.90;99.90
13794;DHT22;31160;49.500;7.772;2024-02-21T07:06:42;7.70;99.90
13794;DHT22;31160;49.500;7.772;2024-02-21T07:09:09;7.60;99.90
13794;DHT22;31160;49.500;7.772;2024-02-21T07:11:36;7.70;99.90
13794;DHT22;31160;49.500;7.772;2024-02-21T07:14:03;7.70;99.90
13794;DHT22;31160;49.500;7.772;2024-02-21T07:16:30;7.70;99.90
13794;DHT22;31160;49.500;7.772;2024-02-21T07:18:59;7.80;99.90
13794;DHT22;31160;49.500;7.772;2024-02-21T07:21:26;7.90;99.90
13794;DHT22;31160;49.500;7.772;2024-02-21T07:23:53;8.10;99.90
13794;DHT22;31160;49.500;7.772;2024-02-21T07:26:20;8.10;99.90
13794;DHT22;31160;49.500;7.772;2024-02-21T07:28:46;8.00;99.90
13794;DHT22;31160;49.500;7.772;2024-02-21T07:31:13;8.00;99.90
13794;DHT22;31160;49.500;7.772;2024-02-21T07:33:40;8.00;99.90
13794;DHT22;31160;49.500;7.772;2024-02-21T07:36:09;8.20;99.90
13794;DHT22;31160;49.500;7.772;2024-02-21T07:38:36;8.00;99.90
13794;DHT22;31160;49.500;7.772;2024-02-21T07:41:03;8.00;99.90
13794;DHT22;31160;49.500;7.772;2024-02-21T07:43:30;7.90;99.90
13794;DHT22;31160;49.500;7.772;2024-02-21T07:45:57;8.00;99.90
13794;DHT22;31160;49.500;7.772;2024-02-21T07:48:24;8.10;99.90
13794;DHT22;31160;49.500;7.772;2024-02-21T07:50:51;8.00;99.90
13794;DHT22;31160;49.500;7.772;2024-02-21T07:53:19;8.10;99.90
13794;DHT22;31160;49.500;7.772;2024-02-21T07:55:46;8.10;99.90
13794;DHT22;31160;49.500;7.772;2024-02-21T07:58:13;8.00;99.90
13794;DHT22;31160;49.500;7.772;2024-02-21T08:00:39;7.90;99.90
13794;DHT22;31160;49.500;7.772;2024-02-21T08:03:06;8.00;99.90
13794;DHT22;31160;49.500;7.772;2024-02-21T08:05:34;8.10;99.90
13794;DHT22;31160;49.500;7.772;2024-02-21T08:08:03;8.10;99.90
13794;DHT22;31160;49.500;7.772;2024-02-21T08:10:30;8.20;99.90
13794;DHT22;31160;49.500;7.772;2024-02-21T08:12:57;8.00;99.90
13794;DHT22;31160;49.500;7.772;2024-02-21T08:15:23;8.10;99.90
13794;DHT22;31160;49.500;7.772;2024-02-21T08:17:56;8.10;99.90
13794;DHT22;31160;49.500;7.772;2024-02-21T08:20:26;8.00;99.90
13794;DHT22;31160;49.500;7.772;2024-02-21T08:22:53;8.20;99.90
13794;DHT22;31160;49.500;7.772;2024-02-21T08:25:20;8.40;99.90
13794;DHT22;31160;49.500;7.772;2024-02-21T08:27:47;8.60;99.90
13794;DHT22;31160;49.500;7.772;2024-02-21T08:30:14;8.60;99.90
13794;DHT22;31160;49.500;7.772;2024-02-21T08:32:41;8.70;99.90
13794;DHT22;31160;49.500;7.772;2024-02-21T08:35:08;8.70;99.90
13794;DHT22;31160;49.500;7.772;2024-02-21T08:37:35;8.80;99.90
13794;DHT22;31160;49.500;7.772;2024-02-21T08:40:02;8.70;99.90
13794;DHT22;31160;49.500;7.772;2024-02-21T08:42:40;9.00;99.90
13794;DHT22;31160;49.500;7.772;2024-02-21T08:45:07;8.80;99.90
13794;DHT22;31160;49.500;7.772;2024-02-21T08:47:34;8.60;99.90
13794;DHT22;31160;49.500;7.772;2024-02-21T08:50:04;8.70;99.90
13794;DHT22;31160;49.500;7.772;2024-02-21T08:52:44;8.70;99.90
13794;DHT22;31160;49.500;7.772;2024-02-21T08:55:11;8.90;99.90
13794;DHT22;31160;49.500;7.772;2024-02-21T08:57:38;9.00;99.90
13794;DHT22;31160;49.500;7.772;2024-02-21T09:00:05;9.10;99.90
13794;DHT22;31160;49.500;7.772;2024-02-21T09:02:39;9.20;99.90
13794;DHT22;31160;49.500;7.772;2024-02-21T09:05:06;9.40;99.90
13794;DHT22;31160;49.500;7.772;2024-02-21T09:07:33;9.50;99.90
13794;DHT22;31160;49.500;7.772;2024-02-21T09:10:00;9.70;99.90
13794;DHT22;31160;49.500;7.772;2024-02-21T09:12:27;9.60;99.90
13794;DHT22;31160;49.500;7.772;2024-02-21T09:14:54;9.50;99.90
13794;DHT22;31160;49.500;7.772;2024-02-21T09:17:21;9.40;99.90
13794;DHT22;31160;49.500;7.772;2024-02-21T09:19:48;9.30;99.90
13794;DHT22;31160;49.500;7.772;2024-02-21T09:22:15;9.30;99.90
13794;DHT22;31160;49.500;7.772;2024-02-21T09:24:41;9.20;99.90
13794;DHT22;31160;49.500;7.772;2024-02-21T09:27:08;9.50;99.90
13794;DHT22;31160;49.500;7.772;2024-02-21T09:29:35;9.50;99.90
13794;DHT22;31160;49.500;7.772;2024-02-21T09:32:03;9.50;99.90
13794;DHT22;31160;49.500;7.772;2024-02-21T09:34:30;9.70;99.90
13794;DHT22;31160;49.500;7.772;2024-02-21T09:36:57;9.70;99.90
13794;DHT22;31160;49.500;7.772;2024-02-21T09:39:24;9.80;99.90
13794;DHT22;31160;49.500;7.772;2024-02-21T09:41:58;9.80;99.90
13794;DHT22;31160;49.500;7.772;2024-02-21T09:44:31;10.00;99.90
13794;DHT22;31160;49.500;7.772;2024-02-21T09:47:03;10.10;99.90
13794;DHT22;31160;49.500;7.772;2024-02-21T09:49:35;10.00;99.90
13794;DHT22;31160;49.500;7.772;2024-02-21T09:52:06;10.00;99.90
13794;DHT22;31160;49.500;7.772;2024-02-21T09:54:34;10.40;99.90
13794;DHT22;31160;49.500;7.772;2024-02-21T09:57:04;10.40;99.90
13794;DHT22;31160;49.500;7.772;2024-02-21T09:59:33;10.70;99.90
13794;DHT22;31160;49.500;7.772;2024-02-21T10:02:00;10.70;99.90
13794;DHT22;31160;49.500;7.772;2024-02-21T10:04:30;10.50;99.90
13794;DHT22;31160;49.500;7.772;2024-02-21T10:06:57;10.60;99.90
13794;DHT22;31160;49.500;7.772;2024-02-21T10:09:28;10.60;99.90
13794;DHT22;31160;49.500;7.772;2024-02-21T10:12:07;10.50;99.90
13794;DHT22;31160;49.500;7.772;2024-02-21T10:14:34;10.30;99.90
13794;DHT22;31160;49.500;7.772;2024-02-21T10:17:01;10.10;99.90
13794;DHT22;31160;49.500;7.772;2024-02-21T10:19:29;9.90;99.90
13794;DHT22;31160;49.500;7.772;2024-02-21T10:22:04;9.90;99.90
13794;DHT22;31160;49.500;7.772;2024-02-21T10:24:31;10.10;99.90
13794;DHT22;31160;49.500;7.772;2024-02-21T10:27:09;10.20;99.90
13794;DHT22;31160;49.500;7.772;2024-02-21T10:29:38;10.00;99.90
13794;DHT22;31160;49.500;7.772;2024-02-21T10:34:34;9.60;99.90
13794;DHT22;31160;49.500;7.772;2024-02-21T10:37:06;9.60;99.90
13794;DHT22;31160;49.500;7.772;2024-02-21T10:39:37;9.70;99.90
13794;DHT22;31160;49.500;7.772;2024-02-21T10:42:05;10.00;99.90
13794;DHT22;31160;49.500;7.772;2024-02-21T10:44:33;10.30;99.90
13794;DHT22;31160;49.500;7.772;2024-02-21T10:47:03;10.60;99.90
13794;DHT22;31160;49.500;7.772;2024-02-21T10:49:39;10.40;99.90
13794;DHT22;31160;49.500;7.772;2024-02-21T10:52:14;10.50;99.90
13794;DHT22;31160;49.500;7.772;2024-02-21T10:54:47;10.50;99.90
13794;DHT22;31160;49.500;7.772;2024-02-21T10:57:17;10.30;99.90
13794;DHT22;31160;49.500;7.772;2024-02-21T10:59:45;10.60;99.90
13794;DHT22;31160;49.500;7.772;2024-02-21T11:02:15;10.50;99.90
13794;DHT22;31160;49.500;7.772;2024-02-21T11:04:43;10.80;99.90
13794;DHT22;31160;49.500;7.772;2024-02-21T11:07:10;10.90;99.90
13794;DHT22;31160;49.500;7.772;2024-02-21T11:09:38;10.90;99.90
13794;DHT22;31160;49.500;7.772;2024-02-21T11:12:05;10.70;99.90
13794;DHT22;31160;49.500;7.772;2024-02-21T11:14:33;10.60;99.90
13794;DHT22;31160;49.500;7.772;2024-02-21T11:17:19;10.30;99.90
13794;DHT22;31160;49.500;7.772;2024-02-21T11:19:46;10.30;99.90
13794;DHT22;31160;49.500;7.772;2024-02-21T11:22:15;10.50;99.90
13794;DHT22;31160;49.500;7.772;2024-02-21T11:24:43;10.60;99.90
13794;DHT22;31160;49.500;7.772;2024-02-21T11:27:22;10.90;99.90
13794;DHT22;31160;49.500;7.772;2024-02-21T11:29:56;10.70;99.90
13794;DHT22;31160;49.500;7.772;2024-02-21T11:32:25;10.50;99.90
13794;DHT22;31160;49.500;7.772;2024-02-21T11:34:59;10.80;99.90
13794;DHT22;31160;49.500;7.772;2024-02-21T11:37:31;11.00;99.90
13794;DHT22;31160;49.500;7.772;2024-02-21T11:40:04;10.90;99.90
13794;DHT22;31160;49.500;7.772;2024-02-21T11:42:31;10.60;99.90
13794;DHT22;31160;49.500;7.772;2024-02-21T11:44:59;10.40;99.90
13794;DHT22;31160;49.500;7.772;2024-02-21T11:47:28;10.60;99.90
13794;DHT22;31160;49.500;7.772;2024-02-21T11:49:56;10.70;99.90
13794;DHT22;31160;49.500;7.772;2024-02-21T11:52:24;10.80;99.90
13794;DHT22;31160;49.500;7.772;2024-02-21T11:54:53;10.80;99.90
13794;DHT22;31160;49.500;7.772;2024-02-21T11:57:21;10.70;99.90
13794;DHT22;31160;49.500;7.772;2024-02-21T11:59:48;10.60;99.90
13794;DHT22;31160;49.500;7.772;2024-02-21T12:02:19;10.80;99.90
13794;DHT22;31160;49.500;7.772;2024-02-21T12:04:46;11.10;99.90
13794;DHT22;31160;49.500;7.772;2024-02-21T12:07:14;11.10;99.90
13794;DHT22;31160;49.500;7.772;2024-02-21T12:09:41;11.00;99.90
13794;DHT22;31160;49.500;7.772;2024-02-21T12:12:08;11.20;99.90
13794;DHT22;31160;49.500;7.772;2024-02-21T12:14:35;11.30;99.90
13794;DHT22;31160;49.500;7.772;2024-02-21T12:17:03;11.20;99.90
13794;DHT22;31160;49.500;7.772;2024-02-21T12:19:34;11.40;99.90
13794;DHT22;31160;49.500;7.772;2024-02-21T12:22:01;11.30;99.90
13794;DHT22;31160;49.500;7.772;2024-02-21T12:24:32;11.20;99.90
13794;DHT22;31160;49.500;7.772;2024-02-21T12:26:59;11.10;99.90
13794;DHT22;31160;49.500;7.772;2024-02-21T12:29:27;11.30;99.90
13794;DHT22;31160;49.500;7.772;2024-02-21T12:31:55;11.60;99.90
13794;DHT22;31160;49.500;7.772;2024-02-21T12:34:23;11.60;99.90
13794;DHT22;31160;49.500;7.772;2024-02-21T12:37:04;11.60;99.90
13794;DHT22;31160;49.500;7.772;2024-02-21T12:39:31;11.70;99.90
13794;DHT22;31160;49.500;7.772;2024-02-21T12:41:59;11.60;99.90
13794;DHT22;31160;49.500;7.772;2024-02-21T12:44:26;11.80;99.90
13794;DHT22;31160;49.500;7.772;2024-02-21T12:46:53;11.50;99.90
13794;DHT22;31160;49.500;7.772;2024-02-21T12:49:22;11.30;99.90
13794;DHT22;31160;49.500;7.772;2024-02-21T12:51:49;11.20;99.90
13794;DHT22;31160;49.500;7.772;2024-02-21T12:54:16;11.60;99.90
13794;DHT22;31160;49.500;7.772;2024-02-21T12:56:42;11.60;99.90
13794;DHT22;31160;49.500;7.772;2024-02-21T12:59:09;11.60;99.90
13794;DHT22;31160;49.500;7.772;2024-02-21T13:01:36;11.40;99.90
13794;DHT22;31160;49.500;7.772;2024-02-21T13:04:05;11.60;99.90
13794;DHT22;31160;49.500;7.772;2024-02-21T13:06:32;11.50;99.90
13794;DHT22;31160;49.500;7.772;2024-02-21T13:08:59;11.50;99.90
13794;DHT22;31160;49.500;7.772;2024-02-21T13:11:30;11.50;99.90
13794;DHT22;31160;49.500;7.772;2024-02-21T13:13:58;11.60;99.90
13794;DHT22;31160;49.500;7.772;2024-02-21T13:16:26;11.70;99.90
13794;DHT22;31160;49.500;7.772;2024-02-21T13:18:53;11.90;99.90
13794;DHT22;31160;49.500;7.772;2024-02-21T13:21:20;12.00;99.90
13794;DHT22;31160;49.500;7.772;2024-02-21T13:23:47;11.90;99.90
13794;DHT22;31160;49.500;7.772;2024-02-21T13:26:14;11.80;99.90
13794;DHT22;31160;49.500;7.772;2024-02-21T13:28:42;11.90;99.90
13794;DHT22;31160;49.500;7.772;2024-02-21T13:31:11;11.70;99.90
13794;DHT22;31160;49.500;7.772;2024-02-21T13:33:38;11.60;99.90
13794;DHT22;31160;49.500;7.772;2024-02-21T13:36:05;11.70;99.90
13794;DHT22;31160;49.500;7.772;2024-02-21T13:38:32;11.80;99.90
13794;DHT22;31160;49.500;7.772;2024-02-21T13:40:59;11.40;99.90
13794;DHT22;31160;49.500;7.772;2024-02-21T13:43:27;11.50;99.90
13794;DHT22;31160;49.500;7.772;2024-02-21T13:46:01;11.50;99.90
13794;DHT22;31160;49.500;7.772;2024-02-21T13:48:36;11.70;99.90
13794;DHT22;31160;49.500;7.772;2024-02-21T13:51:03;11.70;99.90
13794;DHT22;31160;49.500;7.772;2024-02-21T13:53:30;11.50;99.90
13794;DHT22;31160;49.500;7.772;2024-02-21T13:55:56;11.30;99.90
13794;DHT22;31160;49.500;7.772;2024-02-21T13:58:23;11.40;99.90
13794;DHT22;31160;49.500;7.772;2024-02-21T14:00:52;11.70;99.90
13794;DHT22;31160;49.500;7.772;2024-02-21T14:03:19;11.50;99.90
13794;DHT22;31160;49.500;7.772;2024-02-21T14:05:47;11.80;99.90
13794;DHT22;31160;49.500;7.772;2024-02-21T14:08:15;11.70;99.90
13794;DHT22;31160;49.500;7.772;2024-02-21T14:10:42;11.70;99.90
13794;DHT22;31160;49.500;7.772;2024-02-21T14:13:09;11.80;99.90
13794;DHT22;31160;49.500;7.772;2024-02-21T14:15:36;11.60;99.90
13794;DHT22;31160;49.500;7.772;2024-02-21T14:18:04;11.80;99.90
13794;DHT22;31160;49.500;7.772;2024-02-21T14:20:37;11.80;99.90
13794;DHT22;31160;49.500;7.772;2024-02-21T14:23:04;11.70;99.90
13794;DHT22;31160;49.500;7.772;2024-02-21T14:25:31;11.90;99.90
13794;DHT22;31160;49.500;7.772;2024-02-21T14:27:59;11.80;99.90
13794;DHT22;31160;49.500;7.772;2024-02-21T14:30:29;12.00;99.90
13794;DHT22;31160;49.500;7.772;2024-02-21T14:32:56;11.80;99.90
13794;DHT22;31160;49.500;7.772;2024-02-21T14:35:23;11.90;99.90
13794;DHT22;31160;49.500;7.772;2024-02-21T14:37:50;11.60;99.90
13794;DHT22;31160;49.500;7.772;2024-02-21T14:40:17;11.40;99.90
13794;DHT22;31160;49.500;7.772;2024-02-21T14:42:46;11.40;99.90
13794;DHT22;31160;49.500;7.772;2024-02-21T14:45:12;11.40;99.90
13794;DHT22;31160;49.500;7.772;2024-02-21T14:47:40;11.40;99.90
13794;DHT22;31160;49.500;7.772;2024-02-21T14:50:07;11.30;99.90
13794;DHT22;31160;49.500;7.772;2024-02-21T14:52:35;11.40;99.90
13794;DHT22;31160;49.500;7.772;2024-02-21T14:55:03;11.50;99.90
13794;DHT22;31160;49.500;7.772;2024-02-21T14:57:32;11.30;99.90
13794;DHT22;31160;49.500;7.772;2024-02-21T14:59:58;11.30;99.90
13794;DHT22;31160;49.500;7.772;2024-02-21T15:02:27;11.50;99.90
13794;DHT22;31160;49.500;7.772;2024-02-21T15:04:55;11.60;99.90
13794;DHT22;31160;49.500;7.772;2024-02-21T15:07:22;11.70;99.90
13794;DHT22;31160;49.500;7.772;2024-02-21T15:09:53;11.60;99.90
13794;DHT22;31160;49.500;7.772;2024-02-21T15:12:20;11.50;99.90
13794;DHT22;31160;49.500;7.772;2024-02-21T15:14:51;11.40;99.90
13794;DHT22;31160;49.500;7.772;2024-02-21T15:17:18;11.30;99.90
13794;DHT22;31160;49.500;7.772;2024-02-21T15:19:45;11.30;99.90
13794;DHT22;31160;49.500;7.772;2024-02-21T15:22:13;11.40;99.90
13794;DHT22;31160;49.500;7.772;2024-02-21T15:24:40;11.30;99.90
13794;DHT22;31160;49.500;7.772;2024-02-21T15:27:07;11.10;99.90
13794;DHT22;31160;49.500;7.772;2024-02-21T15:29:35;11.20;99.90
13794;DHT22;31160;49.500;7.772;2024-02-21T15:32:03;11.10;99.90
13794;DHT22;31160;49.500;7.772;2024-02-21T15:34:30;11.20;99.90
13794;DHT22;31160;49.500;7.772;2024-02-21T15:36:58;11.00;99.90
13794;DHT22;31160;49.500;7.772;2024-02-21T15:39:25;11.00;99.90
13794;DHT22;31160;49.500;7.772;2024-02-21T15:41:55;11.10;99.90
13794;DHT22;31160;49.500;7.772;2024-02-21T15:44:25;11.20;99.90
13794;DHT22;31160;49.500;7.772;2024-02-21T15:46:52;11.10;99.90